sensor_id;sensor_type;location;lat;lon;timestamp;P1;durP1;ratioP1;P2;durP2;ratioP2
5961;SDS011;3007;50.770;0.250;2023-04-24T00:00:40;21.83;;;16.50;;
5961;SDS011;3007;50.770;0.250;2023-04-24T00:03:07;24.67;;;16.47;;
5961;SDS011;3007;50.770;0.250;2023-04-24T00:05:35;19.37;;;15.00;;
5961;SDS011;3007;50.770;0.250;2023-04-24T00:08:02;21.73;;;16.03;;
5961;SDS011;3007;50.770;0.250;2023-04-24T00:10:29;21.70;;;17.00;;
5961;SDS011;3007;50.770;0.250;2023-04-24T00:12:56;23.87;;;19.03;;
5961;SDS011;3007;50.770;0.250;2023-04-24T00:15:23;22.77;;;17.37;;
5961;SDS011;3007;50.770;0.250;2023-04-24T00:17:50;23.93;;;17.40;;
5961;SDS011;3007;50.770;0.250;2023-04-24T00:20:18;24.03;;;17.50;;
5961;SDS011;3007;50.770;0.250;2023-04-24T00:22:46;22.10;;;17.27;;
5961;SDS011;3007;50.770;0.250;2023-04-24T00:25:13;21.97;;;17.27;;
5961;SDS011;3007;50.770;0.250;2023-04-24T00:27:40;22.40;;;17.80;;
5961;SDS011;3007;50.770;0.250;2023-04-24T00:30:07;25.13;;;18.10;;
5961;SDS011;3007;50.770;0.250;2023-04-24T00:32:34;27.13;;;18.60;;
5961;SDS011;3007;50.770;0.250;2023-04-24T00:35:01;28.93;;;18.53;;
5961;SDS011;3007;50.770;0.250;2023-04-24T00:37:28;26.43;;;19.37;;
5961;SDS011;3007;50.770;0.250;2023-04-24T00:39:57;26.53;;;19.13;;
5961;SDS011;3007;50.770;0.250;2023-04-24T00:42:23;26.10;;;19.00;;
5961;SDS011;3007;50.770;0.250;2023-04-24T00:44:51;24.90;;;19.80;;
5961;SDS011;3007;50.770;0.250;2023-04-24T00:47:19;27.63;;;19.50;;
5961;SDS011;3007;50.770;0.250;2023-04-24T00:49:47;29.30;;;20.27;;
5961;SDS011;3007;50.770;0.250;2023-04-24T00:52:13;26.03;;;18.53;;
5961;SDS011;3007;50.770;0.250;2023-04-24T00:54:42;25.07;;;19.30;;
5961;SDS011;3007;50.770;0.250;2023-04-24T00:57:11;27.83;;;20.97;;
5961;SDS011;3007;50.770;0.250;2023-04-24T00:59:39;27.13;;;18.53;;
5961;SDS011;3007;50.770;0.250;2023-04-24T01:02:07;30.80;;;20.87;;
5961;SDS011;3007;50.770;0.250;2023-04-24T01:04:35;28.13;;;20.73;;
5961;SDS011;3007;50.770;0.250;2023-04-24T01:07:03;27.00;;;19.90;;
5961;SDS011;3007;50.770;0.250;2023-04-24T01:09:34;25.23;;;18.90;;
5961;SDS011;3007;50.770;0.250;2023-04-24T01:12:02;28.37;;;20.27;;
5961;SDS011;3007;50.770;0.250;2023-04-24T01:14:30;26.97;;;20.00;;
5961;SDS011;3007;50.770;0.250;2023-04-24T01:16:57;24.80;;;19.23;;
5961;SDS011;3007;50.770;0.250;2023-04-24T01:19:25;27.23;;;18.53;;
5961;SDS011;3007;50.770;0.250;2023-04-24T01:21:53;28.20;;;19.90;;
5961;SDS011;3007;50.770;0.250;2023-04-24T01:24:24;26.87;;;20.00;;
5961;SDS011;3007;50.770;0.250;2023-04-24T01:26:51;29.33;;;19.60;;
5961;SDS011;3007;50.770;0.250;2023-04-24T01:29:18;25.90;;;19.13;;
5961;SDS011;3007;50.770;0.250;2023-04-24T01:31:45;24.47;;;18.30;;
5961;SDS011;3007;50.770;0.250;2023-04-24T01:34:12;28.50;;;19.93;;
5961;SDS011;3007;50.770;0.250;2023-04-24T01:36:39;25.93;;;19.53;;
5961;SDS011;3007;50.770;0.250;2023-04-24T01:39:09;27.40;;;20.37;;
5961;SDS011;3007;50.770;0.250;2023-04-24T01:41:37;23.73;;;18.57;;
5961;SDS011;3007;50.770;0.250;2023-04-24T01:44:04;30.00;;;19.73;;
5961;SDS011;3007;50.770;0.250;2023-04-24T01:46:31;27.60;;;19.00;;
5961;SDS011;3007;50.770;0.250;2023-04-24T01:49:00;27.40;;;19.10;;
5961;SDS011;3007;50.770;0.250;2023-04-24T01:51:27;26.47;;;19.23;;
5961;SDS011;3007;50.770;0.250;2023-04-24T01:53:55;27.63;;;19.80;;
5961;SDS011;3007;50.770;0.250;2023-04-24T01:56:22;26.63;;;19.67;;
5961;SDS011;3007;50.770;0.250;2023-04-24T01:58:50;26.37;;;19.10;;
5961;SDS011;3007;50.770;0.250;2023-04-24T02:01:19;23.40;;;17.93;;
5961;SDS011;3007;50.770;0.250;2023-04-24T02:03:47;25.47;;;18.60;;
5961;SDS011;3007;50.770;0.250;2023-04-24T02:06:13;24.73;;;17.17;;
5961;SDS011;3007;50.770;0.250;2023-04-24T02:08:40;24.83;;;18.93;;
5961;SDS011;3007;50.770;0.250;2023-04-24T02:11:08;25.57;;;18.40;;
5961;SDS011;3007;50.770;0.250;2023-04-24T02:13:35;25.50;;;18.93;;
5961;SDS011;3007;50.770;0.250;2023-04-24T02:16:03;26.80;;;18.60;;
5961;SDS011;3007;50.770;0.250;2023-04-24T02:18:30;26.50;;;18.87;;
5961;SDS011;3007;50.770;0.250;2023-04-24T02:20:57;26.77;;;19.47;;
5961;SDS011;3007;50.770;0.250;2023-04-24T02:23:24;23.63;;;18.40;;
5961;SDS011;3007;50.770;0.250;2023-04-24T02:25:52;23.60;;;17.87;;
5961;SDS011;3007;50.770;0.250;2023-04-24T02:28:19;25.07;;;17.83;;
5961;SDS011;3007;50.770;0.250;2023-04-24T02:30:46;22.80;;;17.00;;
5961;SDS011;3007;50.770;0.250;2023-04-24T02:33:14;26.77;;;19.00;;
5961;SDS011;3007;50.770;0.250;2023-04-24T02:35:41;24.90;;;18.80;;
5961;SDS011;3007;50.770;0.250;2023-04-24T02:38:08;26.83;;;17.30;;
5961;SDS011;3007;50.770;0.250;2023-04-24T02:40:35;24.03;;;18.03;;
5961;SDS011;3007;50.770;0.250;2023-04-24T02:43:01;22.23;;;16.67;;
5961;SDS011;3007;50.770;0.250;2023-04-24T02:45:28;22.90;;;17.57;;
5961;SDS011;3007;50.770;0.250;2023-04-24T02:47:55;25.93;;;18.30;;
5961;SDS011;3007;50.770;0.250;2023-04-24T02:50:23;26.57;;;18.40;;
5961;SDS011;3007;50.770;0.250;2023-04-24T02:52:50;25.43;;;19.87;;
5961;SDS011;3007;50.770;0.250;2023-04-24T02:55:17;25.73;;;18.93;;
5961;SDS011;3007;50.770;0.250;2023-04-24T02:57:44;22.80;;;17.27;;
5961;SDS011;3007;50.770;0.250;2023-04-24T03:00:11;24.70;;;18.00;;
5961;SDS011;3007;50.770;0.250;2023-04-24T03:02:39;19.93;;;16.40;;
5961;SDS011;3007;50.770;0.250;2023-04-24T03:05:06;22.23;;;16.60;;
5961;SDS011;3007;50.770;0.250;2023-04-24T03:07:35;24.10;;;17.10;;
5961;SDS011;3007;50.770;0.250;2023-04-24T03:10:02;21.60;;;16.70;;
5961;SDS011;3007;50.770;0.250;2023-04-24T03:12:29;20.70;;;16.13;;
5961;SDS011;3007;50.770;0.250;2023-04-24T03:14:56;21.67;;;17.33;;
5961;SDS011;3007;50.770;0.250;2023-04-24T03:17:23;23.13;;;17.53;;
5961;SDS011;3007;50.770;0.250;2023-04-24T03:19:50;20.23;;;16.37;;
5961;SDS011;3007;50.770;0.250;2023-04-24T03:22:17;26.33;;;17.50;;
5961;SDS011;3007;50.770;0.250;2023-04-24T03:24:45;24.80;;;17.60;;
5961;SDS011;3007;50.770;0.250;2023-04-24T03:27:12;23.87;;;18.03;;
5961;SDS011;3007;50.770;0.250;2023-04-24T03:29:39;23.03;;;16.83;;
5961;SDS011;3007;50.770;0.250;2023-04-24T03:32:06;22.43;;;17.40;;
5961;SDS011;3007;50.770;0.250;2023-04-24T03:34:33;26.30;;;18.03;;
5961;SDS011;3007;50.770;0.250;2023-04-24T03:37:00;22.87;;;17.30;;
5961;SDS011;3007;50.770;0.250;2023-04-24T03:39:26;25.33;;;17.27;;
5961;SDS011;3007;50.770;0.250;2023-04-24T03:41:55;22.37;;;17.07;;
5961;SDS011;3007;50.770;0.250;2023-04-24T03:44:22;23.23;;;17.93;;
5961;SDS011;3007;50.770;0.250;2023-04-24T03:46:48;23.90;;;18.10;;
5961;SDS011;3007;50.770;0.250;2023-04-24T03:49:15;21.63;;;17.33;;
5961;SDS011;3007;50.770;0.250;2023-04-24T03:51:42;24.20;;;18.50;;
5961;SDS011;3007;50.770;0.250;2023-04-24T03:54:09;24.23;;;16.47;;
5961;SDS011;3007;50.770;0.250;2023-04-24T03:56:36;23.53;;;18.43;;
5961;SDS011;3007;50.770;0.250;2023-04-24T03:59:04;25.47;;;18.57;;
5961;SDS011;3007;50.770;0.250;2023-04-24T04:01:31;19.27;;;16.47;;
5961;SDS011;3007;50.770;0.250;2023-04-24T04:04:01;23.70;;;18.13;;
5961;SDS011;3007;50.770;0.250;2023-04-24T04:06:28;22.03;;;17.40;;
5961;SDS011;3007;50.770;0.250;2023-04-24T04:08:56;23.97;;;16.70;;
5961;SDS011;3007;50.770;0.250;2023-04-24T04:11:23;23.33;;;17.73;;
5961;SDS011;3007;50.770;0.250;2023-04-24T04:13:50;23.13;;;17.00;;
5961;SDS011;3007;50.770;0.250;2023-04-24T04:16:19;22.77;;;17.17;;
5961;SDS011;3007;50.770;0.250;2023-04-24T04:18:45;20.67;;;16.77;;
5961;SDS011;3007;50.770;0.250;2023-04-24T04:21:12;25.87;;;17.50;;
5961;SDS011;3007;50.770;0.250;2023-04-24T04:23:39;24.10;;;17.50;;
5961;SDS011;3007;50.770;0.250;2023-04-24T04:26:06;23.67;;;17.03;;
5961;SDS011;3007;50.770;0.250;2023-04-24T04:28:34;23.03;;;17.30;;
5961;SDS011;3007;50.770;0.250;2023-04-24T04:31:00;31.40;;;18.47;;
5961;SDS011;3007;50.770;0.250;2023-04-24T04:33:29;29.07;;;18.23;;
5961;SDS011;3007;50.770;0.250;2023-04-24T04:35:56;23.87;;;16.93;;
5961;SDS011;3007;50.770;0.250;2023-04-24T04:38:23;22.47;;;17.13;;
5961;SDS011;3007;50.770;0.250;2023-04-24T04:40:51;21.93;;;18.03;;
5961;SDS011;3007;50.770;0.250;2023-04-24T04:43:18;24.30;;;17.37;;
5961;SDS011;3007;50.770;0.250;2023-04-24T04:45:45;24.10;;;17.87;;
5961;SDS011;3007;50.770;0.250;2023-04-24T04:48:13;24.77;;;18.17;;
5961;SDS011;3007;50.770;0.250;2023-04-24T04:50:44;24.80;;;18.57;;
5961;SDS011;3007;50.770;0.250;2023-04-24T04:53:10;25.33;;;17.53;;
5961;SDS011;3007;50.770;0.250;2023-04-24T04:55:37;23.30;;;18.63;;
5961;SDS011;3007;50.770;0.250;2023-04-24T04:58:04;24.77;;;16.80;;
5961;SDS011;3007;50.770;0.250;2023-04-24T05:00:31;22.87;;;17.67;;
5961;SDS011;3007;50.770;0.250;2023-04-24T05:03:00;26.00;;;17.83;;
5961;SDS011;3007;50.770;0.250;2023-04-24T05:05:27;25.30;;;19.33;;
5961;SDS011;3007;50.770;0.250;2023-04-24T05:07:56;25.10;;;18.40;;
5961;SDS011;3007;50.770;0.250;2023-04-24T05:10:22;26.63;;;18.93;;
5961;SDS011;3007;50.770;0.250;2023-04-24T05:12:49;23.90;;;17.67;;
5961;SDS011;3007;50.770;0.250;2023-04-24T05:15:16;27.33;;;17.60;;
5961;SDS011;3007;50.770;0.250;2023-04-24T05:17:43;23.33;;;16.33;;
5961;SDS011;3007;50.770;0.250;2023-04-24T05:20:10;20.37;;;17.47;;
5961;SDS011;3007;50.770;0.250;2023-04-24T05:22:37;21.47;;;16.40;;
5961;SDS011;3007;50.770;0.250;2023-04-24T05:25:06;20.83;;;16.07;;
5961;SDS011;3007;50.770;0.250;2023-04-24T05:27:33;21.70;;;16.70;;
5961;SDS011;3007;50.770;0.250;2023-04-24T05:30:00;20.80;;;16.67;;
5961;SDS011;3007;50.770;0.250;2023-04-24T05:32:27;20.63;;;16.33;;
5961;SDS011;3007;50.770;0.250;2023-04-24T05:34:54;20.03;;;16.10;;
5961;SDS011;3007;50.770;0.250;2023-04-24T05:37:21;17.60;;;14.13;;
5961;SDS011;3007;50.770;0.250;2023-04-24T05:39:48;18.03;;;13.63;;
5961;SDS011;3007;50.770;0.250;2023-04-24T05:42:16;16.67;;;14.43;;
5961;SDS011;3007;50.770;0.250;2023-04-24T05:44:43;15.93;;;13.60;;
5961;SDS011;3007;50.770;0.250;2023-04-24T05:47:10;14.10;;;12.17;;
5961;SDS011;3007;50.770;0.250;2023-04-24T05:49:37;15.63;;;13.17;;
5961;SDS011;3007;50.770;0.250;2023-04-24T05:52:03;14.33;;;12.47;;
5961;SDS011;3007;50.770;0.250;2023-04-24T05:54:33;15.53;;;11.43;;
5961;SDS011;3007;50.770;0.250;2023-04-24T05:57:00;14.80;;;12.27;;
5961;SDS011;3007;50.770;0.250;2023-04-24T05:59:33;14.23;;;11.07;;
5961;SDS011;3007;50.770;0.250;2023-04-24T06:02:02;12.33;;;10.50;;
5961;SDS011;3007;50.770;0.250;2023-04-24T06:04:29;11.10;;;9.60;;
5961;SDS011;3007;50.770;0.250;2023-04-24T06:06:56;10.73;;;9.27;;
5961;SDS011;3007;50.770;0.250;2023-04-24T06:09:23;13.37;;;9.93;;
5961;SDS011;3007;50.770;0.250;2023-04-24T06:11:50;11.13;;;9.97;;
5961;SDS011;3007;50.770;0.250;2023-04-24T06:14:18;10.32;;;9.32;;
5961;SDS011;3007;50.770;0.250;2023-04-24T06:16:46;11.27;;;9.20;;
5961;SDS011;3007;50.770;0.250;2023-04-24T06:19:15;8.35;;;7.53;;
5961;SDS011;3007;50.770;0.250;2023-04-24T06:21:42;9.88;;;7.95;;
5961;SDS011;3007;50.770;0.250;2023-04-24T06:24:09;11.43;;;8.82;;
5961;SDS011;3007;50.770;0.250;2023-04-24T06:26:35;9.82;;;8.20;;
5961;SDS011;3007;50.770;0.250;2023-04-24T06:29:02;9.93;;;7.55;;
5961;SDS011;3007;50.770;0.250;2023-04-24T06:31:30;8.70;;;7.80;;
5961;SDS011;3007;50.770;0.250;2023-04-24T06:34:03;8.60;;;7.65;;
5961;SDS011;3007;50.770;0.250;2023-04-24T06:36:30;8.07;;;7.28;;
5961;SDS011;3007;50.770;0.250;2023-04-24T06:38:59;8.35;;;7.55;;
5961;SDS011;3007;50.770;0.250;2023-04-24T06:41:26;12.40;;;8.32;;
5961;SDS011;3007;50.770;0.250;2023-04-24T06:43:54;8.30;;;7.50;;
5961;SDS011;3007;50.770;0.250;2023-04-24T06:46:21;8.70;;;7.70;;
5961;SDS011;3007;50.770;0.250;2023-04-24T06:48:50;10.80;;;7.28;;
5961;SDS011;3007;50.770;0.250;2023-04-24T06:51:22;7.68;;;6.97;;
5961;SDS011;3007;50.770;0.250;2023-04-24T06:53:49;8.80;;;7.45;;
5961;SDS011;3007;50.770;0.250;2023-04-24T06:56:15;7.57;;;6.82;;
5961;SDS011;3007;50.770;0.250;2023-04-24T06:58:42;7.10;;;6.40;;
5961;SDS011;3007;50.770;0.250;2023-04-24T07:01:10;7.25;;;6.55;;
5961;SDS011;3007;50.770;0.250;2023-04-24T07:03:37;7.60;;;6.63;;
5961;SDS011;3007;50.770;0.250;2023-04-24T07:06:04;7.65;;;6.72;;
5961;SDS011;3007;50.770;0.250;2023-04-24T07:08:33;7.32;;;6.63;;
5961;SDS011;3007;50.770;0.250;2023-04-24T07:11:00;7.35;;;6.65;;
5961;SDS011;3007;50.770;0.250;2023-04-24T07:13:27;7.93;;;7.07;;
5961;SDS011;3007;50.770;0.250;2023-04-24T07:15:55;8.50;;;7.70;;
5961;SDS011;3007;50.770;0.250;2023-04-24T07:18:22;9.13;;;7.65;;
5961;SDS011;3007;50.770;0.250;2023-04-24T07:20:49;8.27;;;7.35;;
5961;SDS011;3007;50.770;0.250;2023-04-24T07:23:16;9.10;;;7.40;;
5961;SDS011;3007;50.770;0.250;2023-04-24T07:25:44;12.48;;;8.57;;
5961;SDS011;3007;50.770;0.250;2023-04-24T07:28:12;10.57;;;9.48;;
5961;SDS011;3007;50.770;0.250;2023-04-24T07:30:39;9.95;;;8.40;;
5961;SDS011;3007;50.770;0.250;2023-04-24T07:33:05;9.30;;;8.40;;
5961;SDS011;3007;50.770;0.250;2023-04-24T07:35:32;10.85;;;8.80;;
5961;SDS011;3007;50.770;0.250;2023-04-24T07:38:00;9.27;;;7.88;;
5961;SDS011;3007;50.770;0.250;2023-04-24T07:40:27;10.05;;;8.52;;
5961;SDS011;3007;50.770;0.250;2023-04-24T07:42:55;10.32;;;8.80;;
5961;SDS011;3007;50.770;0.250;2023-04-24T07:45:22;9.45;;;7.43;;
5961;SDS011;3007;50.770;0.250;2023-04-24T07:47:51;8.23;;;7.40;;
5961;SDS011;3007;50.770;0.250;2023-04-24T07:50:18;9.73;;;8.73;;
5961;SDS011;3007;50.770;0.250;2023-04-24T07:52:45;8.52;;;7.30;;
5961;SDS011;3007;50.770;0.250;2023-04-24T07:55:12;9.40;;;8.48;;
5961;SDS011;3007;50.770;0.250;2023-04-24T07:57:39;7.75;;;6.93;;
5961;SDS011;3007;50.770;0.250;2023-04-24T08:00:08;9.63;;;7.63;;
5961;SDS011;3007;50.770;0.250;2023-04-24T08:02:35;10.25;;;8.27;;
5961;SDS011;3007;50.770;0.250;2023-04-24T08:05:02;10.05;;;7.93;;
5961;SDS011;3007;50.770;0.250;2023-04-24T08:07:29;9.25;;;7.13;;
5961;SDS011;3007;50.770;0.250;2023-04-24T08:09:57;10.65;;;7.85;;
5961;SDS011;3007;50.770;0.250;2023-04-24T08:12:24;9.60;;;7.65;;
5961;SDS011;3007;50.770;0.250;2023-04-24T08:14:51;8.05;;;7.25;;
5961;SDS011;3007;50.770;0.250;2023-04-24T08:17:19;10.95;;;7.63;;
5961;SDS011;3007;50.770;0.250;2023-04-24T08:19:46;8.38;;;7.57;;
5961;SDS011;3007;50.770;0.250;2023-04-24T08:22:13;9.65;;;7.38;;
5961;SDS011;3007;50.770;0.250;2023-04-24T08:24:40;8.68;;;7.13;;
5961;SDS011;3007;50.770;0.250;2023-04-24T08:27:07;12.13;;;7.90;;
5961;SDS011;3007;50.770;0.250;2023-04-24T08:29:35;7.78;;;7.00;;
5961;SDS011;3007;50.770;0.250;2023-04-24T08:32:02;7.50;;;6.40;;
5961;SDS011;3007;50.770;0.250;2023-04-24T08:34:30;8.02;;;6.88;;
5961;SDS011;3007;50.770;0.250;2023-04-24T08:36:57;9.30;;;7.20;;
5961;SDS011;3007;50.770;0.250;2023-04-24T08:39:24;7.97;;;6.85;;
5961;SDS011;3007;50.770;0.250;2023-04-24T08:41:51;9.27;;;7.10;;
5961;SDS011;3007;50.770;0.250;2023-04-24T08:44:19;9.23;;;8.32;;
5961;SDS011;3007;50.770;0.250;2023-04-24T08:46:47;9.13;;;8.23;;
5961;SDS011;3007;50.770;0.250;2023-04-24T08:49:16;9.38;;;8.43;;
5961;SDS011;3007;50.770;0.250;2023-04-24T08:51:45;10.63;;;8.75;;
5961;SDS011;3007;50.770;0.250;2023-04-24T08:54:13;11.55;;;9.23;;
5961;SDS011;3007;50.770;0.250;2023-04-24T08:56:40;10.30;;;9.23;;
5961;SDS011;3007;50.770;0.250;2023-04-24T08:59:09;12.63;;;9.15;;
5961;SDS011;3007;50.770;0.250;2023-04-24T09:01:37;10.65;;;9.07;;
5961;SDS011;3007;50.770;0.250;2023-04-24T09:04:04;10.73;;;9.23;;
5961;SDS011;3007;50.770;0.250;2023-04-24T09:06:34;9.68;;;8.73;;
5961;SDS011;3007;50.770;0.250;2023-04-24T09:09:03;13.13;;;9.77;;
5961;SDS011;3007;50.770;0.250;2023-04-24T09:11:30;10.93;;;9.82;;
5961;SDS011;3007;50.770;0.250;2023-04-24T09:13:58;13.15;;;9.35;;
5961;SDS011;3007;50.770;0.250;2023-04-24T09:16:26;11.57;;;9.45;;
5961;SDS011;3007;50.770;0.250;2023-04-24T09:18:55;10.65;;;9.32;;
5961;SDS011;3007;50.770;0.250;2023-04-24T09:21:22;10.15;;;9.15;;
5961;SDS011;3007;50.770;0.250;2023-04-24T09:23:57;9.88;;;8.88;;
5961;SDS011;3007;50.770;0.250;2023-04-24T09:26:26;10.50;;;9.35;;
5961;SDS011;3007;50.770;0.250;2023-04-24T09:28:57;13.55;;;9.75;;
5961;SDS011;3007;50.770;0.250;2023-04-24T09:31:26;10.60;;;9.55;;
5961;SDS011;3007;50.770;0.250;2023-04-24T09:33:54;12.48;;;9.57;;
5961;SDS011;3007;50.770;0.250;2023-04-24T09:36:29;10.52;;;9.43;;
5961;SDS011;3007;50.770;0.250;2023-04-24T09:38:58;10.27;;;8.85;;
5961;SDS011;3007;50.770;0.250;2023-04-24T09:41:27;11.50;;;9.95;;
5961;SDS011;3007;50.770;0.250;2023-04-24T09:43:54;11.13;;;8.77;;
5961;SDS011;3007;50.770;0.250;2023-04-24T09:46:28;11.05;;;9.70;;
5961;SDS011;3007;50.770;0.250;2023-04-24T09:48:57;10.85;;;9.68;;
5961;SDS011;3007;50.770;0.250;2023-04-24T09:51:33;11.00;;;9.75;;
5961;SDS011;3007;50.770;0.250;2023-04-24T09:54:02;10.70;;;9.13;;
5961;SDS011;3007;50.770;0.250;2023-04-24T09:56:33;11.50;;;10.05;;
5961;SDS011;3007;50.770;0.250;2023-04-24T09:59:06;12.85;;;10.15;;
5961;SDS011;3007;50.770;0.250;2023-04-24T10:01:33;10.95;;;9.65;;
5961;SDS011;3007;50.770;0.250;2023-04-24T10:04:00;10.27;;;8.82;;
5961;SDS011;3007;50.770;0.250;2023-04-24T10:06:31;9.15;;;8.15;;
5961;SDS011;3007;50.770;0.250;2023-04-24T10:08:59;10.00;;;8.65;;
5961;SDS011;3007;50.770;0.250;2023-04-24T10:11:27;12.73;;;9.37;;
5961;SDS011;3007;50.770;0.250;2023-04-24T10:13:57;10.82;;;8.98;;
5961;SDS011;3007;50.770;0.250;2023-04-24T10:16:24;9.20;;;8.25;;
5961;SDS011;3007;50.770;0.250;2023-04-24T10:18:53;9.13;;;7.55;;
5961;SDS011;3007;50.770;0.250;2023-04-24T10:21:21;9.77;;;7.60;;
5961;SDS011;3007;50.770;0.250;2023-04-24T10:23:48;11.73;;;8.10;;
5961;SDS011;3007;50.770;0.250;2023-04-24T10:26:16;10.63;;;7.43;;
5961;SDS011;3007;50.770;0.250;2023-04-24T10:28:44;10.30;;;7.75;;
5961;SDS011;3007;50.770;0.250;2023-04-24T10:31:13;8.00;;;7.20;;
5961;SDS011;3007;50.770;0.250;2023-04-24T10:33:41;8.77;;;7.20;;
5961;SDS011;3007;50.770;0.250;2023-04-24T10:36:09;9.43;;;7.68;;
5961;SDS011;3007;50.770;0.250;2023-04-24T10:38:38;8.90;;;7.45;;
5961;SDS011;3007;50.770;0.250;2023-04-24T10:41:08;9.33;;;7.47;;
5961;SDS011;3007;50.770;0.250;2023-04-24T10:43:40;9.82;;;7.07;;
5961;SDS011;3007;50.770;0.250;2023-04-24T10:46:08;8.47;;;7.57;;
5961;SDS011;3007;50.770;0.250;2023-04-24T10:48:37;8.27;;;7.30;;
5961;SDS011;3007;50.770;0.250;2023-04-24T10:51:11;8.30;;;7.10;;
5961;SDS011;3007;50.770;0.250;2023-04-24T10:53:39;9.02;;;7.55;;
5961;SDS011;3007;50.770;0.250;2023-04-24T10:56:06;7.90;;;6.55;;
5961;SDS011;3007;50.770;0.250;2023-04-24T10:58:36;7.00;;;6.30;;
5961;SDS011;3007;50.770;0.250;2023-04-24T11:01:05;9.40;;;6.63;;
5961;SDS011;3007;50.770;0.250;2023-04-24T11:03:32;7.40;;;6.65;;
5961;SDS011;3007;50.770;0.250;2023-04-24T11:06:02;8.00;;;5.93;;
5961;SDS011;3007;50.770;0.250;2023-04-24T11:08:31;9.90;;;7.45;;
5961;SDS011;3007;50.770;0.250;2023-04-24T11:11:03;8.75;;;6.43;;
5961;SDS011;3007;50.770;0.250;2023-04-24T11:16:28;7.93;;;6.60;;
5961;SDS011;3007;50.770;0.250;2023-04-24T11:19:01;8.70;;;6.40;;
5961;SDS011;3007;50.770;0.250;2023-04-24T11:21:38;6.32;;;5.72;;
5961;SDS011;3007;50.770;0.250;2023-04-24T11:24:26;7.97;;;6.50;;
5961;SDS011;3007;50.770;0.250;2023-04-24T11:26:58;6.85;;;6.15;;
5961;SDS011;3007;50.770;0.250;2023-04-24T11:29:39;7.20;;;5.55;;
5961;SDS011;3007;50.770;0.250;2023-04-24T11:32:17;7.82;;;5.40;;
5961;SDS011;3007;50.770;0.250;2023-04-24T11:34:46;6.57;;;5.50;;
5961;SDS011;3007;50.770;0.250;2023-04-24T11:37:16;7.65;;;5.43;;
5961;SDS011;3007;50.770;0.250;2023-04-24T11:39:43;6.15;;;5.53;;
5961;SDS011;3007;50.770;0.250;2023-04-24T11:42:10;7.13;;;5.80;;
5961;SDS011;3007;50.770;0.250;2023-04-24T11:44:41;6.00;;;5.50;;
5961;SDS011;3007;50.770;0.250;2023-04-24T11:47:08;7.93;;;6.00;;
5961;SDS011;3007;50.770;0.250;2023-04-24T11:49:36;6.75;;;5.50;;
5961;SDS011;3007;50.770;0.250;2023-04-24T11:52:03;8.23;;;5.88;;
5961;SDS011;3007;50.770;0.250;2023-04-24T11:54:31;7.63;;;5.47;;
5961;SDS011;3007;50.770;0.250;2023-04-24T11:56:58;5.47;;;4.93;;
5961;SDS011;3007;50.770;0.250;2023-04-24T11:59:25;5.63;;;4.90;;
5961;SDS011;3007;50.770;0.250;2023-04-24T12:01:52;6.35;;;5.00;;
5961;SDS011;3007;50.770;0.250;2023-04-24T12:04:19;7.85;;;5.10;;
5961;SDS011;3007;50.770;0.250;2023-04-24T12:06:58;5.95;;;5.35;;
5961;SDS011;3007;50.770;0.250;2023-04-24T12:09:26;6.03;;;5.40;;
5961;SDS011;3007;50.770;0.250;2023-04-24T12:11:54;6.05;;;5.03;;
5961;SDS011;3007;50.770;0.250;2023-04-24T12:14:22;6.05;;;5.15;;
5961;SDS011;3007;50.770;0.250;2023-04-24T12:16:49;4.53;;;4.00;;
5961;SDS011;3007;50.770;0.250;2023-04-24T12:19:17;6.03;;;4.10;;
5961;SDS011;3007;50.770;0.250;2023-04-24T12:21:58;7.87;;;3.93;;
5961;SDS011;3007;50.770;0.250;2023-04-24T12:24:26;6.22;;;4.20;;
5961;SDS011;3007;50.770;0.250;2023-04-24T12:26:54;7.37;;;4.40;;
5961;SDS011;3007;50.770;0.250;2023-04-24T12:29:21;5.05;;;4.25;;
5961;SDS011;3007;50.770;0.250;2023-04-24T12:31:49;5.00;;;4.07;;
5961;SDS011;3007;50.770;0.250;2023-04-24T12:34:17;5.72;;;4.43;;
5961;SDS011;3007;50.770;0.250;2023-04-24T12:36:45;7.45;;;4.95;;
5961;SDS011;3007;50.770;0.250;2023-04-24T12:39:14;6.50;;;3.88;;
5961;SDS011;3007;50.770;0.250;2023-04-24T12:41:50;6.33;;;4.70;;
5961;SDS011;3007;50.770;0.250;2023-04-24T12:44:29;6.55;;;4.15;;
5961;SDS011;3007;50.770;0.250;2023-04-24T12:46:57;9.82;;;4.78;;
5961;SDS011;3007;50.770;0.250;2023-04-24T12:49:24;8.02;;;4.28;;
5961;SDS011;3007;50.770;0.250;2023-04-24T12:51:50;6.15;;;4.55;;
5961;SDS011;3007;50.770;0.250;2023-04-24T12:54:17;5.55;;;4.82;;
5961;SDS011;3007;50.770;0.250;2023-04-24T12:56:44;6.78;;;4.90;;
5961;SDS011;3007;50.770;0.250;2023-04-24T12:59:11;6.72;;;4.65;;
5961;SDS011;3007;50.770;0.250;2023-04-24T13:01:40;6.82;;;4.55;;
5961;SDS011;3007;50.770;0.250;2023-04-24T13:04:07;5.03;;;4.50;;
5961;SDS011;3007;50.770;0.250;2023-04-24T13:06:34;7.80;;;5.32;;
5961;SDS011;3007;50.770;0.250;2023-04-24T13:09:00;6.32;;;4.70;;
5961;SDS011;3007;50.770;0.250;2023-04-24T13:11:28;6.77;;;4.73;;
5961;SDS011;3007;50.770;0.250;2023-04-24T13:13:55;5.60;;;4.63;;
5961;SDS011;3007;50.770;0.250;2023-04-24T13:16:22;6.38;;;4.25;;
5961;SDS011;3007;50.770;0.250;2023-04-24T13:18:50;5.30;;;3.63;;
5961;SDS011;3007;50.770;0.250;2023-04-24T13:21:17;7.15;;;4.07;;
5961;SDS011;3007;50.770;0.250;2023-04-24T13:23:44;7.90;;;3.75;;
5961;SDS011;3007;50.770;0.250;2023-04-24T13:26:11;10.85;;;4.53;;
5961;SDS011;3007;50.770;0.250;2023-04-24T13:28:38;6.78;;;3.53;;
5961;SDS011;3007;50.770;0.250;2023-04-24T13:31:05;5.10;;;3.72;;
5961;SDS011;3007;50.770;0.250;2023-04-24T13:33:32;7.80;;;3.50;;
5961;SDS011;3007;50.770;0.250;2023-04-24T13:36:00;4.25;;;3.38;;
5961;SDS011;3007;50.770;0.250;2023-04-24T13:38:27;6.90;;;4.30;;
5961;SDS011;3007;50.770;0.250;2023-04-24T13:40:54;9.20;;;5.00;;
5961;SDS011;3007;50.770;0.250;2023-04-24T13:43:21;7.13;;;4.55;;
5961;SDS011;3007;50.770;0.250;2023-04-24T13:45:48;6.13;;;4.20;;
5961;SDS011;3007;50.770;0.250;2023-04-24T13:48:15;7.68;;;4.78;;
5961;SDS011;3007;50.770;0.250;2023-04-24T13:50:43;4.85;;;3.55;;
5961;SDS011;3007;50.770;0.250;2023-04-24T13:53:14;5.35;;;4.20;;
5961;SDS011;3007;50.770;0.250;2023-04-24T13:55:41;6.80;;;3.90;;
5961;SDS011;3007;50.770;0.250;2023-04-24T13:58:08;8.85;;;4.53;;
5961;SDS011;3007;50.770;0.250;2023-04-24T14:00:35;7.50;;;3.63;;
5961;SDS011;3007;50.770;0.250;2023-04-24T14:03:02;6.03;;;3.78;;
5961;SDS011;3007;50.770;0.250;2023-04-24T14:05:29;5.22;;;3.78;;
5961;SDS011;3007;50.770;0.250;2023-04-24T14:07:56;6.63;;;3.70;;
5961;SDS011;3007;50.770;0.250;2023-04-24T14:10:24;5.60;;;3.40;;
5961;SDS011;3007;50.770;0.250;2023-04-24T14:12:52;6.93;;;3.60;;
5961;SDS011;3007;50.770;0.250;2023-04-24T14:15:19;6.82;;;2.92;;
5961;SDS011;3007;50.770;0.250;2023-04-24T14:17:46;5.68;;;2.75;;
5961;SDS011;3007;50.770;0.250;2023-04-24T14:20:13;6.15;;;2.92;;
5961;SDS011;3007;50.770;0.250;2023-04-24T14:22:40;10.40;;;3.60;;
5961;SDS011;3007;50.770;0.250;2023-04-24T14:25:07;6.00;;;3.10;;
5961;SDS011;3007;50.770;0.250;2023-04-24T14:27:36;9.38;;;3.15;;
5961;SDS011;3007;50.770;0.250;2023-04-24T14:30:04;8.88;;;3.40;;
5961;SDS011;3007;50.770;0.250;2023-04-24T14:32:32;11.13;;;3.80;;
5961;SDS011;3007;50.770;0.250;2023-04-24T14:34:58;6.10;;;3.00;;
5961;SDS011;3007;50.770;0.250;2023-04-24T14:37:25;10.70;;;3.30;;
5961;SDS011;3007;50.770;0.250;2023-04-24T14:39:52;6.35;;;3.70;;
5961;SDS011;3007;50.770;0.250;2023-04-24T14:42:19;7.88;;;3.40;;
5961;SDS011;3007;50.770;0.250;2023-04-24T14:44:47;7.10;;;3.20;;
5961;SDS011;3007;50.770;0.250;2023-04-24T14:47:14;8.32;;;3.35;;
5961;SDS011;3007;50.770;0.250;2023-04-24T14:49:42;5.53;;;3.20;;
5961;SDS011;3007;50.770;0.250;2023-04-24T14:52:09;6.07;;;3.88;;
5961;SDS011;3007;50.770;0.250;2023-04-24T14:54:36;7.90;;;3.90;;
5961;SDS011;3007;50.770;0.250;2023-04-24T14:57:03;10.02;;;3.30;;
5961;SDS011;3007;50.770;0.250;2023-04-24T14:59:30;7.15;;;3.20;;
5961;SDS011;3007;50.770;0.250;2023-04-24T15:01:59;7.37;;;3.90;;
5961;SDS011;3007;50.770;0.250;2023-04-24T15:04:26;5.13;;;3.30;;
5961;SDS011;3007;50.770;0.250;2023-04-24T15:06:54;7.43;;;2.67;;
5961;SDS011;3007;50.770;0.250;2023-04-24T15:09:21;4.78;;;2.33;;